Time;durP1;ratioP1;P1;durP2;ratioP2;P2;SDS_P1;SDS_P2;PMS_P1;PMS_P2;Temp;Humidity;BMP_temperature;BMP_pressure;BME280_temperature;BME280_humidity;BME280_pressure;Samples;Min_cycle;Max_cycle;Signal;HPM_P1;HPM_P2
2022/02/13 00:00:12;;;;;;;;;;;;;;;16.31;57.79;101799.09;4965081;28;19915;-79
2022/02/13 00:02:40;;;;;;;;;;;;;;;16.32;57.83;101799.13;4962833;29;20423;-79
2022/02/13 00:05:06;;;;;;;;;;;;;;;16.30;57.74;101780.06;4928769;28;1155373;-78
2022/02/13 00:07:33;;;;;;;;;;;;;;;16.29;58.04;101773.13;4950744;29;20069;-77
2022/02/13 00:09:58;;;;;;;;;;;;;;;16.29;57.80;101778.34;4947902;29;19921;-77
2022/02/13 00:12:24;;;;;;;;;;;;;;;16.30;57.65;101774.88;4978672;28;19914;-77
2022/02/13 00:14:49;;;;;;;;;;;;;;;16.30;57.60;101763.63;4965910;28;20016;-77
2022/02/13 00:17:14;;;;;;;;;;;;;;;16.28;57.59;101753.19;4964935;28;19973;-77
2022/02/13 00:19:40;;;;;;;;;;;;;;;16.28;57.45;101742.81;4981995;28;20020;-78
2022/02/13 00:22:06;;;;;;;;;;;;;;;16.27;57.44;101735.88;4965494;28;19925;-77
2022/02/13 00:24:31;;;;;;;;;;;;;;;16.28;57.31;101742.81;4982004;28;19910;-77
2022/02/13 00:26:56;;;;;;;;;;;;;;;16.28;57.38;101748.00;4955022;29;19921;-77
2022/02/13 00:29:21;;;;;;;;;;;;;;;16.29;57.75;101749.75;4949743;28;19922;-79
2022/02/13 00:31:47;;;;;;;;;;;;;;;16.29;57.40;101748.88;4980126;28;19910;-77
2022/02/13 00:34:12;;;;;;;;;;;;;;;16.29;57.30;101730.69;4980123;28;19917;-78
2022/02/13 00:36:37;;;;;;;;;;;;;;;16.28;57.10;101724.63;4965741;28;19918;-78
2022/02/13 00:39:03;;;;;;;;;;;;;;;16.28;57.25;101714.25;4960796;28;19953;-77
2022/02/13 00:41:28;;;;;;;;;;;;;;;16.29;57.66;101710.81;4961901;29;19911;-77
2022/02/13 00:43:53;;;;;;;;;;;;;;;16.29;57.30;101708.22;4946120;29;19914;-77
2022/02/13 00:46:19;;;;;;;;;;;;;;;16.28;57.38;101708.19;4945116;29;19914;-78
2022/02/13 00:48:44;;;;;;;;;;;;;;;16.29;57.26;101699.50;4966953;28;19917;-78
2022/02/13 00:51:10;;;;;;;;;;;;;;;16.29;57.50;101699.50;4953827;29;19918;-77
2022/02/13 00:53:35;;;;;;;;;;;;;;;16.27;57.54;101694.34;4945407;29;19918;-78
2022/02/13 00:56:00;;;;;;;;;;;;;;;16.30;57.93;101693.47;4967122;28;20424;-78
2022/02/13 00:58:28;;;;;;;;;;;;;;;16.30;57.33;101688.28;4962136;29;19978;-78
2022/02/13 01:00:53;;;;;;;;;;;;;;;16.29;57.43;101687.44;4944550;29;19923;-78
2022/02/13 01:03:18;;;;;;;;;;;;;;;16.29;57.54;101687.44;4944013;29;19915;-79
2022/02/13 01:05:44;;;;;;;;;;;;;;;16.28;57.38;101690.00;4960128;28;20035;-78
2022/02/13 01:08:10;;;;;;;;;;;;;;;16.27;57.20;101678.75;4960508;29;20387;-78
2022/02/13 01:10:35;;;;;;;;;;;;;;;16.28;57.27;101675.28;4961224;28;19918;-78
2022/02/13 01:13:01;;;;;;;;;;;;;;;16.26;57.33;101679.59;4962184;29;19910;-78
2022/02/13 01:15:26;;;;;;;;;;;;;;;16.30;57.38;101677.91;4945463;29;20280;-78
2022/02/13 01:17:52;;;;;;;;;;;;;;;16.29;57.26;101676.16;4944525;29;19918;-78
2022/02/13 01:20:17;;;;;;;;;;;;;;;16.28;57.20;101667.50;4945039;29;19973;-78
2022/02/13 01:22:42;;;;;;;;;;;;;;;16.29;57.37;101673.53;4960606;29;19922;-77
2022/02/13 01:25:07;;;;;;;;;;;;;;;16.29;57.28;101678.75;4945816;29;19915;-77
2022/02/13 01:27:33;;;;;;;;;;;;;;;16.28;56.99;101677.00;4962560;28;20265;-79
2022/02/13 01:29:58;;;;;;;;;;;;;;;16.29;57.35;101666.66;4983932;28;19921;-77
2022/02/13 01:32:23;;;;;;;;;;;;;;;16.29;57.08;101676.16;4984378;28;20374;-77
2022/02/13 01:34:49;;;;;;;;;;;;;;;16.28;56.89;101661.44;4982613;28;19921;-77
2022/02/13 01:37:14;;;;;;;;;;;;;;;16.29;57.17;101665.75;4975204;28;19918;-77
2022/02/13 01:39:39;;;;;;;;;;;;;;;16.28;57.10;101662.28;4982613;28;19969;-77
2022/02/13 01:42:05;;;;;;;;;;;;;;;16.28;57.14;101651.91;4999894;28;20060;-77
2022/02/13 01:44:32;;;;;;;;;;;;;;;16.26;57.14;101640.63;4982287;28;20387;-79
2022/02/13 01:46:57;;;;;;;;;;;;;;;16.28;57.19;101631.13;4979088;28;19910;-79
2022/02/13 01:49:22;;;;;;;;;;;;;;;16.29;57.05;101624.19;4982491;28;20001;-79
2022/02/13 01:51:48;;;;;;;;;;;;;;;16.28;57.39;101622.47;4979126;28;19910;-79
2022/02/13 01:54:13;;;;;;;;;;;;;;;16.29;57.04;101627.69;4964746;28;20273;-79
2022/02/13 01:56:38;;;;;;;;;;;;;;;16.27;56.91;101625.94;4956912;28;19925;-79
2022/02/13 01:59:05;;;;;;;;;;;;;;;16.30;57.34;101620.75;4964816;28;19918;-79
2022/02/13 02:01:30;;;;;;;;;;;;;;;16.29;56.85;101627.69;4966970;28;19914;-79
2022/02/13 02:03:55;;;;;;;;;;;;;;;16.28;56.87;101623.34;4983787;28;20368;-79
2022/02/13 02:06:20;;;;;;;;;;;;;;;16.29;56.87;101617.31;4971172;28;19922;-79
2022/02/13 02:08:45;;;;;;;;;;;;;;;16.30;56.79;101610.38;4948876;29;19978;-79
2022/02/13 02:11:11;;;;;;;;;;;;;;;16.30;56.65;101610.38;4946942;29;19949;-79
2022/02/13 02:13:36;;;;;;;;;;;;;;;16.31;56.81;101605.19;4964954;29;19921;-79
2022/02/13 02:16:01;;;;;;;;;;;;;;;16.30;56.69;101599.97;4947382;29;20352;-79
2022/02/13 02:18:27;;;;;;;;;;;;;;;16.30;56.57;101599.97;4948702;28;19918;-77
2022/02/13 02:20:54;;;;;;;;;;;;;;;16.30;56.67;101595.66;4982763;28;19914;-79
2022/02/13 02:23:20;;;;;;;;;;;;;;;16.31;56.53;101586.13;4980988;28;19914;-79
2022/02/13 02:25:45;;;;;;;;;;;;;;;16.30;56.57;101585.25;4996270;28;19917;-77
2022/02/13 02:28:10;;;;;;;;;;;;;;;16.30;56.94;101574.88;5002253;28;19917;-77
2022/02/13 02:30:36;;;;;;;;;;;;;;;16.30;56.64;101569.69;4965848;28;19990;-77
2022/02/13 02:33:01;;;;;;;;;;;;;;;16.30;56.85;101569.69;4968027;28;19918;-77
2022/02/13 02:35:26;;;;;;;;;;;;;;;16.29;56.64;101561.88;4984175;28;20426;-77
2022/02/13 02:37:51;;;;;;;;;;;;;;;16.31;56.54;101562.75;4981332;28;20340;-77
2022/02/13 02:40:18;;;;;;;;;;;;;;;16.31;56.70;101557.56;4956144;28;19914;-77
2022/02/13 02:42:45;;;;;;;;;;;;;;;16.31;56.06;101549.75;4961384;29;20292;-77
2022/02/13 02:45:13;;;;;;;;;;;;;;;16.31;56.49;101554.94;4962385;28;20013;-77
2022/02/13 02:47:39;;;;;;;;;;;;;;;16.32;56.68;101551.50;4967247;28;20005;-77
2022/02/13 02:50:04;;;;;;;;;;;;;;;16.32;56.71;101543.72;4976805;28;20291;-77
2022/02/13 02:52:29;;;;;;;;;;;;;;;16.31;55.94;101527.28;4969303;28;19914;-77
2022/02/13 02:54:55;;;;;;;;;;;;;;;16.31;56.36;101529.88;4963868;28;19914;-77
2022/02/13 02:57:20;;;;;;;;;;;;;;;16.31;56.55;101522.09;4953202;28;20020;-79
2022/02/13 02:59:45;;;;;;;;;;;;;;;16.31;56.16;101516.00;4982781;28;19921;-79
2022/02/13 03:02:10;;;;;;;;;;;;;;;16.32;56.38;101523.81;4975721;28;19921;-78
2022/02/13 03:04:36;;;;;;;;;;;;;;;16.33;56.05;101516.88;4963069;28;19961;-80
2022/02/13 03:07:01;;;;;;;;;;;;;;;16.32;56.10;101517.75;4955147;29;19926;-79
2022/02/13 03:09:26;;;;;;;;;;;;;;;16.32;56.52;101517.75;4944549;29;20261;-77
2022/02/13 03:11:51;;;;;;;;;;;;;;;16.32;56.31;101515.16;4960625;28;19917;-79
2022/02/13 03:14:17;;;;;;;;;;;;;;;16.34;56.17;101516.03;4943896;29;20032;-79
2022/02/13 03:16:42;;;;;;;;;;;;;;;16.32;56.37;101515.16;4946083;28;19922;-79
2022/02/13 03:19:07;;;;;;;;;;;;;;;16.34;56.16;101513.44;4962037;29;19961;-78
2022/02/13 03:21:33;;;;;;;;;;;;;;;16.33;56.06;101511.69;4944793;29;19926;-79
2022/02/13 03:23:58;;;;;;;;;;;;;;;16.33;55.86;101517.78;4942539;29;19918;-79
2022/02/13 03:26:24;;;;;;;;;;;;;;;16.33;56.20;101516.88;4963642;28;19910;-79
2022/02/13 03:28:50;;;;;;;;;;;;;;;16.32;56.17;101507.34;4976856;28;19921;-79
2022/02/13 03:31:15;;;;;;;;;;;;;;;16.33;55.83;101509.97;4960919;28;19914;-79
2022/02/13 03:33:41;;;;;;;;;;;;;;;16.32;55.95;101502.16;4960101;28;19968;-79
2022/02/13 03:36:06;;;;;;;;;;;;;;;16.33;55.54;101501.28;4960659;28;19951;-79
2022/02/13 03:38:31;;;;;;;;;;;;;;;16.32;55.92;101495.25;4957274;28;19914;-79
2022/02/13 03:40:57;;;;;;;;;;;;;;;16.33;55.70;101491.78;4956679;28;20384;-79
2022/02/13 03:43:22;;;;;;;;;;;;;;;16.33;55.89;101488.31;4958081;28;20356;-79
2022/02/13 03:45:47;;;;;;;;;;;;;;;16.32;55.82;101471.00;4959675;28;20368;-79
2022/02/13 03:48:12;;;;;;;;;;;;;;;16.31;55.82;101477.94;4975429;28;19922;-79
2022/02/13 03:50:38;;;;;;;;;;;;;;;16.32;55.32;101474.47;4953766;28;19957;-79
2022/02/13 03:53:03;;;;;;;;;;;;;;;16.33;55.96;101473.63;4942367;29;19921;-79
2022/02/13 03:55:30;;;;;;;;;;;;;;;16.32;55.78;101468.41;4976555;28;19986;-79
2022/02/13 03:57:55;;;;;;;;;;;;;;;16.32;55.53;101466.66;4965083;28;19923;-78
2022/02/13 04:00:20;;;;;;;;;;;;;;;16.33;55.54;101470.13;4949293;29;19914;-79
2022/02/13 04:02:46;;;;;;;;;;;;;;;16.34;55.40;101458.91;4949915;29;20005;-79
2022/02/13 04:05:11;;;;;;;;;;;;;;;16.31;55.48;101462.34;4963159;28;19929;-79
2022/02/13 04:07:41;;;;;;;;;;;;;;;16.32;55.15;101452.81;4984545;28;20360;-78
2022/02/13 04:10:06;;;;;;;;;;;;;;;16.32;55.48;101443.28;4983520;28;20340;-78
2022/02/13 04:12:31;;;;;;;;;;;;;;;16.33;55.23;101439.84;4958700;28;19921;-77
2022/02/13 04:14:57;;;;;;;;;;;;;;;16.33;55.16;101437.25;4940998;29;19921;-78
2022/02/13 04:17:22;;;;;;;;;;;;;;;16.33;55.05;101442.44;4956572;28;19918;-78
2022/02/13 04:19:47;;;;;;;;;;;;;;;16.33;55.16;101444.16;4956326;29;20009;-78
2022/02/13 04:22:12;;;;;;;;;;;;;;;16.32;54.97;101440.69;4939298;29;19914;-78
2022/02/13 04:24:38;;;;;;;;;;;;;;;16.33;55.29;101438.97;4955168;29;19964;-77
2022/02/13 04:27:03;;;;;;;;;;;;;;;16.34;55.21;101435.50;4963263;28;20061;-78
2022/02/13 04:29:28;;;;;;;;;;;;;;;16.32;54.99;101427.72;4988513;28;19909;-78
2022/02/13 04:31:54;;;;;;;;;;;;;;;16.33;55.16;101425.97;4994204;28;20000;-77
2022/02/13 04:34:19;;;;;;;;;;;;;;;16.33;55.06;101433.75;4994974;28;19916;-78
2022/02/13 04:36:44;;;;;;;;;;;;;;;16.32;54.85;101425.09;4994205;28;19913;-78
2022/02/13 04:39:09;;;;;;;;;;;;;;;16.33;54.95;101436.34;4960165;28;19962;-77
2022/02/13 04:41:35;;;;;;;;;;;;;;;16.32;54.82;101437.22;4960219;28;19922;-77
2022/02/13 04:44:00;;;;;;;;;;;;;;;16.33;55.00;101433.75;4979980;28;20387;-77
2022/02/13 04:46:25;;;;;;;;;;;;;;;16.33;54.91;101436.34;4963837;28;19914;-78
2022/02/13 04:48:50;;;;;;;;;;;;;;;16.33;54.81;101429.47;4979670;28;19957;-78
2022/02/13 04:51:16;;;;;;;;;;;;;;;16.34;54.64;101438.13;4952402;29;19956;-78
2022/02/13 04:53:41;;;;;;;;;;;;;;;16.32;54.61;101437.22;4942335;29;20395;-78
2022/02/13 04:56:06;;;;;;;;;;;;;;;16.32;54.83;101422.50;4942339;28;19930;-78
2022/02/13 04:58:32;;;;;;;;;;;;;;;16.33;54.37;101423.38;4961860;28;19921;-77
2022/02/13 05:00:57;;;;;;;;;;;;;;;16.32;54.65;101416.47;4977317;28;19920;-78
2022/02/13 05:03:24;;;;;;;;;;;;;;;16.33;54.67;101418.19;4979051;28;20009;-78
2022/02/13 05:05:51;;;;;;;;;;;;;;;16.32;54.54;101406.94;4948829;29;19922;-78
2022/02/13 05:08:17;;;;;;;;;;;;;;;16.33;54.65;101410.38;4962230;29;19911;-77
2022/02/13 05:10:42;;;;;;;;;;;;;;;16.32;54.14;101398.28;4972924;28;19914;-78
2022/02/13 05:13:07;;;;;;;;;;;;;;;16.32;54.60;101401.72;4946547;29;19922;-78
2022/02/13 05:15:32;;;;;;;;;;;;;;;16.33;54.57;101394.81;4961117;28;19918;-78
2022/02/13 05:17:58;;;;;;;;;;;;;;;16.32;54.40;101399.13;4984556;28;20008;-77
2022/02/13 05:20:23;;;;;;;;;;;;;;;16.34;54.25;101393.97;4976085;28;20030;-78
2022/02/13 05:22:48;;;;;;;;;;;;;;;16.33;54.76;101389.59;4965212;28;19918;-78
2022/02/13 05:25:13;;;;;;;;;;;;;;;16.32;54.24;101388.75;4979973;28;19914;-78
2022/02/13 05:27:39;;;;;;;;;;;;;;;16.32;53.94;101380.97;4981604;28;20429;-78
2022/02/13 05:30:04;;;;;;;;;;;;;;;16.32;53.93;101373.16;4965290;28;19925;-77
2022/02/13 05:32:30;;;;;;;;;;;;;;;16.32;54.30;101377.50;4970051;28;19918;-77
2022/02/13 05:34:55;;;;;;;;;;;;;;;16.32;54.27;101377.50;4947027;29;19914;-77
2022/02/13 05:37:20;;;;;;;;;;;;;;;16.32;53.98;101377.50;4953233;29;19968;-77
2022/02/13 05:39:46;;;;;;;;;;;;;;;16.31;54.00;101373.16;4962283;28;19914;-78
2022/02/13 05:42:11;;;;;;;;;;;;;;;16.31;54.21;101360.16;4946247;29;19914;-78
2022/02/13 05:44:36;;;;;;;;;;;;;;;16.31;53.85;101354.97;4961442;28;20005;-78
2022/02/13 05:47:02;;;;;;;;;;;;;;;16.30;53.85;101348.06;4953309;28;19918;-77
2022/02/13 05:49:27;;;;;;;;;;;;;;;16.31;53.88;101344.56;4981098;28;19960;-77
2022/02/13 05:51:54;;;;;;;;;;;;;;;16.31;54.34;101339.38;4951422;29;20382;-77
2022/02/13 05:54:19;;;;;;;;;;;;;;;16.30;53.87;101340.25;4963930;28;19950;-77
2022/02/13 05:56:44;;;;;;;;;;;;;;;16.31;53.75;101329.88;4963314;29;19926;-77
2022/02/13 05:59:09;;;;;;;;;;;;;;;16.30;53.64;101328.13;4948772;29;20000;-78
2022/02/13 06:01:44;;;;;;;;;;;;;;;16.31;53.96;101334.19;4959397;28;19917;-78
2022/02/13 06:04:10;;;;;;;;;;;;;;;16.30;53.48;101324.69;4968394;28;19985;-79
2022/02/13 06:06:35;;;;;;;;;;;;;;;16.31;53.22;101323.81;5003181;28;19949;-78
2022/02/13 06:09:02;;;;;;;;;;;;;;;16.35;53.60;101317.75;5004829;28;19945;-80
2022/02/13 06:11:27;;;;;;;;;;;;;;;16.36;53.19;101311.72;4982606;28;19914;-81
2022/02/13 06:13:53;;;;;;;;;;;;;;;16.39;53.13;101311.72;4973218;28;20005;-79
2022/02/13 06:16:18;;;;;;;;;;;;;;;16.42;52.81;101302.22;4970567;28;19925;-79
2022/02/13 06:18:43;;;;;;;;;;;;;;;16.46;52.77;101308.25;4963943;28;20013;-79
2022/02/13 06:21:09;;;;;;;;;;;;;;;16.47;52.39;101304.81;4962805;29;19914;-79
2022/02/13 06:23:34;;;;;;;;;;;;;;;16.49;52.48;101299.63;4969852;28;19914;-79
2022/02/13 06:25:59;;;;;;;;;;;;;;;16.51;52.17;101305.69;4982334;28;20372;-79
2022/02/13 06:28:24;;;;;;;;;;;;;;;16.52;52.20;101308.28;4982690;28;19918;-79
2022/02/13 06:30:50;;;;;;;;;;;;;;;16.54;52.10;101303.09;4979305;28;20379;-78
2022/02/13 06:33:16;;;;;;;;;;;;;;;16.54;52.21;101296.16;4972961;28;19915;-79
2022/02/13 06:35:41;;;;;;;;;;;;;;;16.58;51.98;101294.44;4948360;29;19969;-79
2022/02/13 06:38:11;;;;;;;;;;;;;;;16.61;51.93;101284.94;4948061;29;19965;-79
2022/02/13 06:40:37;;;;;;;;;;;;;;;16.61;52.04;101278.84;4974718;28;19914;-79
2022/02/13 06:43:02;;;;;;;;;;;;;;;16.62;52.01;101272.81;4963564;29;20013;-79
2022/02/13 06:45:27;;;;;;;;;;;;;;;16.63;51.99;101278.00;4964743;28;19910;-79
2022/02/13 06:47:52;;;;;;;;;;;;;;;16.64;51.77;101284.94;4949156;29;20276;-78
2022/02/13 06:50:18;;;;;;;;;;;;;;;16.63;51.82;101272.78;4959000;28;20427;-79
2022/02/13 06:52:44;;;;;;;;;;;;;;;16.65;51.96;101262.41;4954912;28;19922;-79
2022/02/13 06:55:09;;;;;;;;;;;;;;;16.69;51.74;101264.16;4981266;28;19914;-79
2022/02/13 06:57:41;;;;;;;;;;;;;;;16.70;51.60;101265.91;4962408;28;19974;-79
2022/02/13 07:00:07;;;;;;;;;;;;;;;16.70;51.81;101257.22;4962344;28;19910;-79
2022/02/13 07:02:32;;;;;;;;;;;;;;;16.71;51.70;101251.16;4947277;29;19918;-79
2022/02/13 07:04:58;;;;;;;;;;;;;;;16.73;51.60;101255.50;4965536;29;19923;-78
2022/02/13 07:07:23;;;;;;;;;;;;;;;16.75;51.42;101252.91;4964603;29;19947;-79
2022/02/13 07:09:48;;;;;;;;;;;;;;;16.74;51.55;101258.94;4946684;29;19921;-79
2022/02/13 07:12:13;;;;;;;;;;;;;;;16.75;51.41;101253.75;4963174;29;19914;-79
2022/02/13 07:14:39;;;;;;;;;;;;;;;16.76;51.36;101252.88;4961872;29;19917;-79
2022/02/13 07:17:05;;;;;;;;;;;;;;;16.76;51.52;101258.06;4963995;29;19922;-78
2022/02/13 07:19:30;;;;;;;;;;;;;;;16.78;51.40;101258.09;4948030;29;20353;-78
2022/02/13 07:21:56;;;;;;;;;;;;;;;16.80;51.12;101261.59;4963310;29;19917;-80
2022/02/13 07:24:21;;;;;;;;;;;;;;;16.80;51.36;101264.19;4947186;29;19918;-78
2022/02/13 07:26:46;;;;;;;;;;;;;;;16.79;51.41;101262.44;4961989;28;20394;-78
2022/02/13 07:29:11;;;;;;;;;;;;;;;16.79;51.23;101263.31;4947355;29;19914;-78
2022/02/13 07:31:37;;;;;;;;;;;;;;;16.81;51.14;101264.19;4946410;29;20353;-79
2022/02/13 07:34:03;;;;;;;;;;;;;;;16.81;51.04;101255.50;4947418;29;19914;-79
2022/02/13 07:36:29;;;;;;;;;;;;;;;16.80;51.31;101246.84;4948691;29;19969;-78
2022/02/13 07:38:55;;;;;;;;;;;;;;;16.80;51.24;101246.84;4966259;29;19950;-77
2022/02/13 07:41:20;;;;;;;;;;;;;;;16.80;51.42;101246.00;4964686;29;19911;-78
2022/02/13 07:43:46;;;;;;;;;;;;;;;16.78;51.82;101251.16;4963986;29;19910;-78
2022/02/13 07:46:11;;;;;;;;;;;;;;;16.87;51.89;101237.31;4965360;29;19914;-78
2022/02/13 07:48:36;;;;;;;;;;;;;;;16.76;52.37;101241.63;4949778;29;19978;-78
2022/02/13 07:51:02;;;;;;;;;;;;;;;16.69;52.25;101245.97;4968867;29;19910;-78
2022/02/13 07:53:27;;;;;;;;;;;;;;;16.65;52.36;101255.47;4968936;28;20285;-78
2022/02/13 07:55:53;;;;;;;;;;;;;;;16.64;52.28;101253.75;4949694;29;19918;-78
2022/02/13 07:58:18;;;;;;;;;;;;;;;16.63;52.25;101245.94;4967591;29;20004;-78
2022/02/13 08:00:43;;;;;;;;;;;;;;;16.63;52.56;101257.19;4969308;29;19914;-79
2022/02/13 08:03:09;;;;;;;;;;;;;;;16.63;52.48;101252.00;4952299;29;19946;-78
2022/02/13 08:05:34;;;;;;;;;;;;;;;16.65;52.39;101237.28;4964685;29;19942;-78
2022/02/13 08:07:59;;;;;;;;;;;;;;;16.66;52.57;101254.63;4951650;29;19914;-78
2022/02/13 08:10:24;;;;;;;;;;;;;;;16.69;52.78;101239.91;4966180;29;20005;-78
2022/02/13 08:12:50;;;;;;;;;;;;;;;16.70;52.59;101237.31;4950228;29;19915;-78
2022/02/13 08:15:16;;;;;;;;;;;;;;;16.73;52.40;101234.69;4965732;29;20338;-78
2022/02/13 08:17:42;;;;;;;;;;;;;;;16.75;52.33;101239.91;4948682;29;19918;-78
2022/02/13 08:20:10;;;;;;;;;;;;;;;16.78;52.37;101242.50;4964700;29;19910;-78
2022/02/13 08:22:36;;;;;;;;;;;;;;;16.79;52.19;101226.91;4950480;29;20049;-78
2022/02/13 08:25:01;;;;;;;;;;;;;;;16.81;52.28;101221.72;4948173;29;19914;-78
2022/02/13 08:27:27;;;;;;;;;;;;;;;16.80;52.18;101223.47;4964819;29;19911;-78
2022/02/13 08:29:52;;;;;;;;;;;;;;;16.80;52.32;101217.41;4962830;29;19917;-78
2022/02/13 08:32:18;;;;;;;;;;;;;;;16.79;52.22;101215.66;4945976;29;19914;-78
2022/02/13 08:34:43;;;;;;;;;;;;;;;16.80;52.29;101222.59;4963156;29;19918;-78
2022/02/13 08:37:08;;;;;;;;;;;;;;;16.80;52.29;101212.22;4962009;28;19921;-78
2022/02/13 08:39:34;;;;;;;;;;;;;;;16.81;52.23;101207.03;4949843;29;19914;-78
2022/02/13 08:41:59;;;;;;;;;;;;;;;16.81;52.24;101207.03;4965525;29;20005;-78
2022/02/13 08:44:24;;;;;;;;;;;;;;;16.80;52.28;101201.81;4966747;28;19916;-78
2022/02/13 08:46:50;;;;;;;;;;;;;;;16.80;51.98;101199.22;4966286;29;19954;-78
2022/02/13 08:49:15;;;;;;;;;;;;;;;16.81;52.31;101203.53;4948086;29;19949;-77
2022/02/13 08:51:40;;;;;;;;;;;;;;;16.79;52.24;101200.91;4947963;29;20424;-79
2022/02/13 08:54:05;;;;;;;;;;;;;;;16.79;51.95;101198.31;4964430;29;19921;-78
2022/02/13 08:56:31;;;;;;;;;;;;;;;16.79;52.30;101192.25;4946746;29;19918;-79
2022/02/13 08:58:57;;;;;;;;;;;;;;;16.80;52.24;101183.63;4959130;29;19916;-78
2022/02/13 09:01:23;;;;;;;;;;;;;;;16.79;52.12;101168.88;4943226;29;19914;-78
2022/02/13 09:03:48;;;;;;;;;;;;;;;16.80;52.16;101181.88;4959346;29;19911;-79
2022/02/13 09:06:13;;;;;;;;;;;;;;;16.81;52.11;101181.03;4943141;29;19933;-79
2022/02/13 09:08:38;;;;;;;;;;;;;;;16.82;52.13;101174.94;4960619;29;20013;-78
2022/02/13 09:11:04;;;;;;;;;;;;;;;16.83;51.85;101170.59;4942658;29;19962;-78
2022/02/13 09:13:29;;;;;;;;;;;;;;;16.84;51.97;101173.22;4942048;29;20281;-78
2022/02/13 09:15:54;;;;;;;;;;;;;;;16.86;51.88;101160.22;4958019;29;19961;-78
2022/02/13 09:18:19;;;;;;;;;;;;;;;16.86;51.80;101158.47;4958219;29;20383;-78
2022/02/13 09:20:45;;;;;;;;;;;;;;;16.88;51.85;101160.22;4943465;29;20356;-79
2022/02/13 09:23:14;;;;;;;;;;;;;;;16.91;53.38;101162.81;4947095;29;19952;-78
2022/02/13 09:25:42;;;;;;;;;;;;;;;16.94;52.86;101150.69;4959557;28;19910;-81
2022/02/13 09:28:08;;;;;;;;;;;;;;;16.98;52.14;101149.78;4959981;28;19950;-80
2022/02/13 09:30:34;;;;;;;;;;;;;;;16.98;52.09;101142.00;4942971;29;19925;-80
2022/02/13 09:33:28;;;;;;;;;;;;;;;16.98;52.05;101142.00;4949498;29;19914;-83
2022/02/13 09:36:13;;;;;;;;;;;;;;;16.98;52.21;101141.13;4954960;28;19982;-82
2022/02/13 09:41:44;;;;;;;;;;;;;;;16.99;52.04;101119.47;4939517;29;20372;-81
2022/02/13 09:44:18;;;;;;;;;;;;;;;17.00;52.19;101119.44;4940481;29;20254;-81
2022/02/13 09:46:46;;;;;;;;;;;;;;;17.02;52.06;101122.06;4938796;29;20468;-82
2022/02/13 09:49:37;;;;;;;;;;;;;;;17.04;52.02;101104.72;4954606;29;19946;-82
2022/02/13 09:52:28;;;;;;;;;;;;;;;17.07;51.95;101117.69;4922664;29;20021;-83
2022/02/13 09:55:02;;;;;;;;;;;;;;;17.12;51.93;101115.13;4905766;29;19918;-83
2022/02/13 10:04:14;;;;;;;;;;;;;;;17.23;51.76;101103.78;4901211;29;19907;-83
2022/02/13 10:07:06;;;;;;;;;;;;;;;17.24;51.58;101110.69;4882655;29;19942;-84
2022/02/13 10:13:06;;;;;;;;;;;;;;;17.28;51.34;101103.75;4903149;29;20019;-82
2022/02/13 10:15:33;;;;;;;;;;;;;;;17.25;51.53;101104.66;4885228;29;19926;-82
2022/02/13 10:18:03;;;;;;;;;;;;;;;17.25;51.59;101093.38;4903036;29;19935;-83
2022/02/13 10:20:58;;;;;;;;;;;;;;;17.22;51.69;101082.97;4902084;29;19911;-83
2022/02/13 10:23:43;;;;;;;;;;;;;;;17.20;51.97;101079.53;4902361;29;19978;-82
2022/02/13 10:26:28;;;;;;;;;;;;;;;17.22;51.86;101077.78;4906182;29;19903;-83
2022/02/13 10:28:55;;;;;;;;;;;;;;;17.25;51.74;101083.00;4896158;29;20374;-81
2022/02/13 10:31:24;;;;;;;;;;;;;;;17.24;51.84;101071.69;4916563;29;19911;-82
2022/02/13 10:33:59;;;;;;;;;;;;;;;17.24;51.69;101082.09;4901006;29;19915;-81
2022/02/13 10:36:24;;;;;;;;;;;;;;;17.24;51.82;101079.50;4919825;29;19963;-81
2022/02/13 10:38:51;;;;;;;;;;;;;;;17.24;51.89;101081.25;4933578;29;19915;-81
2022/02/13 10:41:21;;;;;;;;;;;;;;;17.25;51.98;101078.63;4914271;29;20075;-81
2022/02/13 10:43:49;;;;;;;;;;;;;;;17.28;51.64;101073.41;4927336;29;19921;-81
2022/02/13 10:46:17;;;;;;;;;;;;;;;17.31;51.53;101069.06;4932313;29;19911;-83
2022/02/13 10:49:01;;;;;;;;;;;;;;;17.31;51.81;101063.88;4936363;29;19895;-87
2022/02/13 10:54:30;;;;;;;;;;;;;;;17.33;51.90;101051.72;4934133;29;20042;-78
2022/02/13 10:56:57;;;;;;;;;;;;;;;17.30;52.01;101046.53;4933199;29;19919;-83
2022/02/13 11:02:29;;;;;;;;;;;;;;;17.27;52.51;101037.03;4977708;28;19909;-83
2022/02/13 11:08:43;;;;;;;;;;;;;;;17.27;52.69;101024.88;4977025;29;19920;-84
2022/02/13 11:11:11;;;;;;;;;;;;;;;17.28;52.79;101017.94;4957998;29;20013;-82
2022/02/13 11:13:49;;;;;;;;;;;;;;;17.28;52.63;101010.13;4976384;28;19979;-82
2022/02/13 11:16:29;;;;;;;;;;;;;;;17.30;52.85;101005.78;4956613;29;19918;-81
2022/02/13 11:18:58;;;;;;;;;;;;;;;17.30;52.88;100997.13;4972026;29;19914;-83
2022/02/13 11:21:29;;;;;;;;;;;;;;;17.29;52.81;100993.66;4974333;29;19910;-83
2022/02/13 11:23:55;;;;;;;;;;;;;;;17.28;52.79;100982.38;4957549;29;19910;-83
2022/02/13 11:26:40;;;;;;;;;;;;;;;17.30;52.77;100987.59;4972306;29;19894;-84
2022/02/13 11:29:13;;;;;;;;;;;;;;;17.32;52.60;100980.63;4970331;29;19945;-81
2022/02/13 11:31:45;;;;;;;;;;;;;;;17.33;52.83;100979.75;4956230;29;19956;-84
2022/02/13 11:37:15;;;;;;;;;;;;;;;17.33;52.72;100974.53;4979521;28;19926;-82
2022/02/13 11:42:45;;;;;;;;;;;;;;;17.34;53.58;100957.22;4977549;28;19929;-82
2022/02/13 11:45:37;;;;;;;;;;;;;;;17.33;53.23;100961.53;4978869;28;19973;-81
2022/02/13 11:48:32;;;;;;;;;;;;;;;17.33;53.04;100955.47;4959721;28;19973;-80
2022/02/13 11:50:58;;;;;;;;;;;;;;;17.31;53.35;100949.41;4960331;28;19914;-79
2022/02/13 11:53:24;;;;;;;;;;;;;;;17.28;53.16;100943.38;4961822;28;19911;-78
2022/02/13 11:55:50;;;;;;;;;;;;;;;17.28;53.30;100937.31;4969459;28;19953;-79
2022/02/13 11:58:16;;;;;;;;;;;;;;;17.25;53.47;100938.19;4938800;28;19925;-80
2022/02/13 12:00:46;;;;;;;;;;;;;;;17.25;53.54;100939.94;4950600;29;19914;-79
2022/02/13 12:03:19;;;;;;;;;;;;;;;17.26;53.47;100928.66;4961238;28;20316;-79
2022/02/13 12:05:50;;;;;;;;;;;;;;;17.24;53.75;100915.66;4970473;28;19930;-80
2022/02/13 12:08:23;;;;;;;;;;;;;;;17.25;53.48;100922.59;4954972;28;19961;-79
2022/02/13 12:10:59;;;;;;;;;;;;;;;17.24;53.58;100920.00;4964742;28;19945;-79
2022/02/13 12:13:26;;;;;;;;;;;;;;;17.22;53.48;100925.22;4946669;29;19902;-79
2022/02/13 12:15:52;;;;;;;;;;;;;;;17.23;53.27;100916.53;4945061;28;19945;-79
2022/02/13 12:18:18;;;;;;;;;;;;;;;17.22;53.59;100914.81;4945446;29;19921;-79
2022/02/13 12:20:43;;;;;;;;;;;;;;;17.20;53.43;100903.56;4961405;29;19910;-79
2022/02/13 12:23:10;;;;;;;;;;;;;;;17.19;53.28;100894.03;4961345;28;19917;-79
2022/02/13 12:25:36;;;;;;;;;;;;;;;17.19;53.41;100882.75;4961684;29;19953;-79
2022/02/13 12:28:02;;;;;;;;;;;;;;;17.18;53.50;100876.72;4961662;29;19910;-79
2022/02/13 12:30:27;;;;;;;;;;;;;;;17.17;53.40;100884.50;4962396;29;19915;-80
2022/02/13 12:32:57;;;;;;;;;;;;;;;17.17;53.44;100871.50;4960960;28;19954;-79
2022/02/13 12:35:28;;;;;;;;;;;;;;;17.17;53.35;100877.56;4963026;28;19915;-79
2022/02/13 12:37:53;;;;;;;;;;;;;;;17.15;53.27;100871.50;4963511;28;20002;-78
2022/02/13 12:40:22;;;;;;;;;;;;;;;17.15;53.08;100860.25;4962471;28;19937;-79
2022/02/13 12:42:48;;;;;;;;;;;;;;;17.15;53.13;100861.09;4963026;28;20276;-79
2022/02/13 12:45:15;;;;;;;;;;;;;;;17.16;53.31;100854.16;4963025;28;20341;-78
2022/02/13 12:47:42;;;;;;;;;;;;;;;17.17;53.14;100840.31;4963916;29;19997;-78
2022/02/13 12:50:09;;;;;;;;;;;;;;;17.16;53.16;100835.97;4963639;28;20375;-79
2022/02/13 12:52:35;;;;;;;;;;;;;;;17.15;53.09;100827.31;4961448;28;19914;-79
2022/02/13 12:55:21;;;;;;;;;;;;;;;17.15;52.93;100823.84;4962205;29;19914;-78
2022/02/13 12:57:48;;;;;;;;;;;;;;;17.15;53.16;100810.84;4962189;29;19918;-79
2022/02/13 13:00:22;;;;;;;;;;;;;;;17.13;53.18;100804.78;4962247;28;19922;-78
2022/02/13 13:02:51;;;;;;;;;;;;;;;17.13;53.23;100797.84;4960328;29;19910;-79